createdAt,value
2022-09-11T00:00:10.016Z,19.3
2022-09-11T00:15:02.885Z,19.3
2022-09-11T00:30:07.053Z,19.3
2022-09-11T00:45:04.376Z,19.2
2022-09-11T01:00:06.442Z,19.2
2022-09-11T01:15:03.807Z,19.2
2022-09-11T01:30:04.208Z,19.2
2022-09-11T01:45:02.246Z,19.1
2022-09-11T02:00:06.337Z,19.1
2022-09-11T02:15:03.926Z,19.1
2022-09-11T02:30:04.322Z,19.1
2022-09-11T02:45:04.058Z,19.1
2022-09-11T03:00:07.904Z,19.0
2022-09-11T03:15:04.484Z,19.0
2022-09-11T03:30:06.799Z,19
2022-09-11T03:45:02.704Z,19
2022-09-11T04:00:07.064Z,19
2022-09-11T04:15:03.512Z,19
2022-09-11T04:30:06.681Z,19
2022-09-11T04:45:03.372Z,19
2022-09-11T05:00:06.057Z,18.9
2022-09-11T05:15:05.436Z,18.9
2022-09-11T05:30:07.908Z,18.9
2022-09-11T05:45:02.589Z,18.9
2022-09-11T06:00:08.862Z,18.9
2022-09-11T06:15:03.309Z,18.9
2022-09-11T06:30:07.329Z,18.9
2022-09-11T06:45:03.480Z,18.9
2022-09-11T07:00:11.236Z,18.9
2022-09-11T07:15:02.696Z,18.9
2022-09-11T07:30:04.262Z,18.9
2022-09-11T07:45:04.234Z,19.0
2022-09-11T08:00:10.323Z,19
2022-09-11T08:15:04.293Z,19
2022-09-11T08:30:08.332Z,19
2022-09-11T08:45:03.966Z,19
2022-09-11T09:00:10.426Z,19.1
2022-09-11T09:15:05.046Z,19.1
2022-09-11T09:30:04.817Z,19.1
2022-09-11T09:45:03.193Z,19.1
2022-09-11T10:00:09.535Z,19.1
2022-09-11T10:15:02.881Z,19.1
2022-09-11T10:30:08.948Z,19.1
2022-09-11T10:45:02.478Z,19.2
2022-09-11T11:00:06.367Z,19.2
2022-09-11T11:15:03.356Z,19.2
2022-09-11T11:30:08.224Z,19.2
2022-09-11T11:45:04.952Z,19.3
2022-09-11T12:00:11.052Z,19.3
2022-09-11T12:15:06.503Z,19.3
2022-09-11T12:30:09.371Z,19.4
2022-09-11T12:45:03.332Z,19.5
2022-09-11T13:00:09.064Z,19.5
2022-09-11T13:15:02.687Z,19.5
2022-09-11T13:30:07.106Z,19.5
2022-09-11T13:45:03.796Z,19.7
2022-09-11T14:00:06.838Z,19.7
2022-09-11T14:15:02.600Z,19.8
2022-09-11T14:30:04.136Z,19.8
2022-09-11T14:45:04.102Z,19.9
2022-09-11T15:00:07.731Z,20.0
2022-09-11T15:15:04.838Z,20
2022-09-11T15:30:05.611Z,20
2022-09-11T15:45:03.954Z,20.1
2022-09-11T16:00:09.648Z,20.1
2022-09-11T16:15:04.404Z,20.1
2022-09-11T16:30:39.503Z,20.2
2022-09-11T16:45:03.250Z,20.3
2022-09-11T17:00:11.018Z,20.3
2022-09-11T17:15:06.472Z,20.3
2022-09-11T17:30:07.114Z,20.3
2022-09-11T17:45:04.264Z,20.3
2022-09-11T18:00:12.360Z,20.3
2022-09-11T18:15:06.651Z,20.3
2022-09-11T18:30:10.685Z,20.2
2022-09-11T18:45:05.721Z,20.2
2022-09-11T19:00:07.058Z,20.2
2022-09-11T19:15:03.768Z,20.2
2022-09-11T19:30:06.094Z,20.2
2022-09-11T19:45:03.587Z,20.1
2022-09-11T20:00:07.175Z,20.1
2022-09-11T20:15:03.404Z,20.1
2022-09-11T20:30:05.595Z,20.1
2022-09-11T20:45:02.542Z,20.0
2022-09-11T21:00:05.404Z,20
2022-09-11T21:15:04.899Z,20
2022-09-11T21:30:05.087Z,20
2022-09-11T21:45:03.270Z,20
2022-09-11T22:00:10.675Z,20
2022-09-11T22:15:02.553Z,20
2022-09-11T22:30:07.150Z,20
2022-09-11T22:45:02.014Z,20
2022-09-11T23:00:08.000Z,20
2022-09-11T23:15:04.905Z,20
2022-09-11T23:30:04.224Z,20
2022-09-11T23:45:05.177Z,20
